createdAt,value
2022-12-11T00:00:06.714Z,8.77
2022-12-11T00:02:34.464Z,8.80
2022-12-11T00:05:02.317Z,10.10
2022-12-11T00:07:29.916Z,9.47
2022-12-11T00:09:57.581Z,10.53
2022-12-11T00:12:25.130Z,9.33
2022-12-11T00:14:53.179Z,9.07
2022-12-11T00:17:22.125Z,8.80
2022-12-11T00:19:49.667Z,9.57
2022-12-11T00:22:17.291Z,8.53
2022-12-11T00:24:44.840Z,7.83
2022-12-11T00:27:13.008Z,8.20
2022-12-11T00:29:41.315Z,10.40
2022-12-11T00:32:09.158Z,8.17
2022-12-11T00:34:38.397Z,8.43
2022-12-11T00:37:05.974Z,7.77
2022-12-11T00:39:33.625Z,8.27
2022-12-11T00:42:01.189Z,8.50
2022-12-11T00:44:28.904Z,7.67
2022-12-11T00:46:56.615Z,8.63
2022-12-11T00:49:24.216Z,7.40
2022-12-11T00:51:53.415Z,9.33
2022-12-11T00:54:21.185Z,7.27
2022-12-11T00:56:48.820Z,9.83
2022-12-11T00:59:16.457Z,7.63
2022-12-11T01:01:44.135Z,9.40
2022-12-11T01:04:11.722Z,9.20
2022-12-11T01:06:40.212Z,8.97
2022-12-11T01:09:26.633Z,9.70
2022-12-11T01:11:54.332Z,8.40
2022-12-11T01:14:21.971Z,8.70
2022-12-11T01:16:49.586Z,7.97
2022-12-11T01:19:17.372Z,8.40
2022-12-11T01:21:44.964Z,8.87
2022-12-11T01:24:13.947Z,8.87
2022-12-11T01:26:41.694Z,7.20
2022-12-11T01:29:09.358Z,8.33
2022-12-11T01:31:37.912Z,7.60
2022-12-11T01:34:05.490Z,8.63
2022-12-11T01:36:33.098Z,7.97
2022-12-11T01:39:01.047Z,8.60
2022-12-11T01:41:30.146Z,8.00
2022-12-11T01:43:59.537Z,9.97
2022-12-11T01:46:27.735Z,11.07
2022-12-11T01:48:56.686Z,8.50
2022-12-11T01:51:25.426Z,6.57
2022-12-11T01:53:56.927Z,8.30
2022-12-11T01:56:25.382Z,7.70
2022-12-11T01:58:59.712Z,6.67
2022-12-11T02:01:32.914Z,6.30
2022-12-11T02:04:00.862Z,8.30
2022-12-11T02:06:33.247Z,7.57
2022-12-11T02:09:01.935Z,7.30
2022-12-11T02:11:39.801Z,7.57
2022-12-11T02:14:15.048Z,8.60
2022-12-11T02:16:47.784Z,7.80
2022-12-11T02:19:29.831Z,6.07
2022-12-11T02:21:58.225Z,7.87
2022-12-11T02:24:39.836Z,6.87
2022-12-11T02:27:19.304Z,8.73
2022-12-11T02:29:51.844Z,7.17
2022-12-11T02:32:23.606Z,7.03
2022-12-11T02:34:59.006Z,8.70
2022-12-11T02:37:31.203Z,7.13
2022-12-11T02:39:59.105Z,7.53
2022-12-11T02:42:31.917Z,8.43
2022-12-11T02:45:03.231Z,10.30
2022-12-11T02:47:33.192Z,7.43
2022-12-11T02:50:03.724Z,8.10
2022-12-11T02:52:33.878Z,8.37
2022-12-11T02:55:03.558Z,8.10
2022-12-11T02:57:36.903Z,7.60
2022-12-11T03:00:09.338Z,7.30
2022-12-11T03:02:37.625Z,8.50
2022-12-11T03:05:06.463Z,7.17
2022-12-11T03:07:38.054Z,7.93
2022-12-11T03:10:07.207Z,6.60
2022-12-11T03:12:38.172Z,8.40
2022-12-11T03:15:11.662Z,8.27
2022-12-11T03:17:45.605Z,6.47
2022-12-11T03:20:19.461Z,7.60
2022-12-11T03:22:52.826Z,8.83
2022-12-11T03:25:24.448Z,8.30
2022-12-11T03:28:01.357Z,6.97
2022-12-11T03:30:34.260Z,8.10
2022-12-11T03:33:06.351Z,7.70
2022-12-11T03:35:38.132Z,6.13
2022-12-11T03:38:09.778Z,8.00
2022-12-11T03:40:40.541Z,7.47
2022-12-11T03:43:08.931Z,7.60
2022-12-11T03:45:41.023Z,8.80
2022-12-11T03:48:11.037Z,9.17
2022-12-11T03:50:40.425Z,7.40
2022-12-11T03:53:08.760Z,7.70
2022-12-11T03:55:38.672Z,7.57
2022-12-11T03:58:06.548Z,8.33
2022-12-11T04:00:34.329Z,7.77
2022-12-11T04:03:16.336Z,8.47
2022-12-11T04:05:46.307Z,7.10
2022-12-11T04:08:14.878Z,7.10
2022-12-11T04:10:42.981Z,7.63
2022-12-11T04:13:11.514Z,8.90
2022-12-11T04:15:39.319Z,7.40
2022-12-11T04:18:26.590Z,8.73
2022-12-11T04:21:12.175Z,8.00
2022-12-11T04:23:57.607Z,7.43
2022-12-11T04:26:25.199Z,7.40
2022-12-11T04:28:53.488Z,6.73
2022-12-11T04:31:23.363Z,8.60
2022-12-11T04:33:53.141Z,7.60
2022-12-11T04:36:20.730Z,9.67
2022-12-11T04:38:51.445Z,7.30
2022-12-11T04:41:19.435Z,8.63
2022-12-11T04:43:47.005Z,7.43
2022-12-11T04:46:16.836Z,8.63
2022-12-11T04:48:45.143Z,8.60
2022-12-11T04:51:15.060Z,8.13
2022-12-11T04:53:42.786Z,7.87
2022-12-11T04:56:12.663Z,8.33
2022-12-11T04:58:41.299Z,7.40
2022-12-11T05:01:09.511Z,8.03
2022-12-11T05:03:37.422Z,8.10
2022-12-11T05:06:06.140Z,9.60
2022-12-11T05:08:36.883Z,9.63
2022-12-11T05:11:06.700Z,9.33
2022-12-11T05:13:34.727Z,8.47
2022-12-11T05:16:04.862Z,9.47
2022-12-11T05:18:32.816Z,9.77
2022-12-11T05:21:02.661Z,8.37
2022-12-11T05:23:30.487Z,10.17
2022-12-11T05:26:00.945Z,7.97
2022-12-11T05:28:30.259Z,7.83
2022-12-11T05:30:58.475Z,9.03
2022-12-11T05:33:27.304Z,8.97
2022-12-11T05:35:54.948Z,8.87
2022-12-11T05:38:22.565Z,6.90
2022-12-11T05:40:56.759Z,10.70
2022-12-11T05:43:28.898Z,8.40
2022-12-11T05:45:57.604Z,8.37
2022-12-11T05:48:25.348Z,8.73
2022-12-11T05:51:00.014Z,9.70
2022-12-11T05:53:28.527Z,11.40
2022-12-11T05:55:56.449Z,10.70
2022-12-11T05:58:24.025Z,10.47
2022-12-11T06:00:52.981Z,8.43
2022-12-11T06:03:20.615Z,10.13
2022-12-11T06:05:48.393Z,9.47
2022-12-11T06:08:16.236Z,8.93
2022-12-11T06:10:46.427Z,10.10
2022-12-11T06:13:14.403Z,8.63
2022-12-11T06:15:42.429Z,9.50
2022-12-11T06:18:11.501Z,11.70
2022-12-11T06:20:39.030Z,11.20
2022-12-11T06:23:06.778Z,12.00
2022-12-11T06:25:34.776Z,9.63
2022-12-11T06:28:02.769Z,9.80
2022-12-11T06:30:38.510Z,8.77
2022-12-11T06:33:07.183Z,10.13
2022-12-11T06:35:41.724Z,10.17
2022-12-11T06:38:10.448Z,11.00
2022-12-11T06:40:38.107Z,10.13
2022-12-11T06:43:05.653Z,10.93
2022-12-11T06:45:33.368Z,10.57
2022-12-11T06:48:00.939Z,8.70
2022-12-11T06:50:28.492Z,9.47
2022-12-11T06:52:57.909Z,9.10
2022-12-11T06:55:25.486Z,9.10
2022-12-11T06:57:53.149Z,10.70
2022-12-11T07:00:21.023Z,9.07
2022-12-11T07:02:48.607Z,9.37
2022-12-11T07:05:16.439Z,10.83
2022-12-11T07:07:44.009Z,10.27
2022-12-11T07:10:12.980Z,9.80
2022-12-11T07:12:40.654Z,9.03
2022-12-11T07:15:09.539Z,9.30
2022-12-11T07:17:37.372Z,10.10
2022-12-11T07:20:06.102Z,9.07
2022-12-11T07:22:33.836Z,10.60
2022-12-11T07:25:01.501Z,10.03
2022-12-11T07:27:30.545Z,9.87
2022-12-11T07:29:58.086Z,10.70
2022-12-11T07:32:25.816Z,9.73
2022-12-11T07:34:53.455Z,11.00
2022-12-11T07:37:21.007Z,10.60
2022-12-11T07:39:48.908Z,9.00
2022-12-11T07:42:16.473Z,10.90
2022-12-11T07:44:45.363Z,10.43
2022-12-11T07:47:12.928Z,9.83
2022-12-11T07:49:40.526Z,10.07
2022-12-11T07:52:08.148Z,12.23
2022-12-11T07:54:35.732Z,8.97
2022-12-11T07:57:03.335Z,9.00
2022-12-11T07:59:30.972Z,10.67
2022-12-11T08:02:00.042Z,11.10
2022-12-11T08:04:27.955Z,9.53
2022-12-11T08:06:55.614Z,9.23
2022-12-11T08:09:23.331Z,9.60
2022-12-11T08:11:51.490Z,9.17
2022-12-11T08:14:19.834Z,11.60
2022-12-11T08:16:47.781Z,11.40
2022-12-11T08:19:17.863Z,10.80
2022-12-11T08:21:45.584Z,9.67
2022-12-11T08:24:14.576Z,9.73
2022-12-11T08:26:42.140Z,10.80
2022-12-11T08:29:11.167Z,10.07
2022-12-11T08:31:39.666Z,11.00
2022-12-11T08:34:07.510Z,11.40
2022-12-11T08:36:36.525Z,10.27
2022-12-11T08:39:04.170Z,8.90
2022-12-11T08:41:32.103Z,9.47
2022-12-11T08:44:01.685Z,10.53
2022-12-11T08:46:32.029Z,11.33
2022-12-11T08:49:00.615Z,8.80
2022-12-11T08:51:31.622Z,10.10
2022-12-11T08:54:02.118Z,9.40
2022-12-11T08:56:30.597Z,9.20
2022-12-11T08:59:00.548Z,9.90
2022-12-11T09:01:29.080Z,8.20
2022-12-11T09:03:57.881Z,11.60
2022-12-11T09:06:28.050Z,13.70
2022-12-11T09:08:57.139Z,11.00
2022-12-11T09:11:29.023Z,9.90
2022-12-11T09:13:58.210Z,10.30
2022-12-11T09:16:29.595Z,11.40
2022-12-11T09:18:59.470Z,10.10
2022-12-11T09:21:29.227Z,10.30
2022-12-11T09:23:58.701Z,10.00
2022-12-11T09:26:29.236Z,11.47
2022-12-11T09:28:57.199Z,9.40
2022-12-11T09:31:26.826Z,11.43
2022-12-11T09:33:57.375Z,11.07
2022-12-11T09:36:25.244Z,12.83
2022-12-11T09:38:53.545Z,9.60
2022-12-11T09:41:47.708Z,10.83
2022-12-11T09:44:23.244Z,9.73
2022-12-11T09:46:52.567Z,10.07
2022-12-11T09:49:34.580Z,8.80
2022-12-11T09:52:11.528Z,9.60
2022-12-11T09:54:44.787Z,10.77
2022-12-11T09:57:24.872Z,9.40
2022-12-11T10:00:11.171Z,10.50
2022-12-11T10:02:50.521Z,8.40
2022-12-11T10:05:23.361Z,11.17
2022-12-11T10:08:00.455Z,9.83
2022-12-11T10:10:40.184Z,9.30
2022-12-11T10:13:21.625Z,9.83
2022-12-11T10:15:55.431Z,8.67
2022-12-11T10:18:27.215Z,9.63
2022-12-11T10:20:56.627Z,9.90
2022-12-11T10:23:30.370Z,10.20
2022-12-11T10:26:04.080Z,9.87
2022-12-11T10:28:33.009Z,11.13
2022-12-11T10:31:11.875Z,9.50
2022-12-11T10:33:48.031Z,8.83
2022-12-11T10:36:21.557Z,11.03
2022-12-11T10:38:49.328Z,8.27
2022-12-11T10:41:21.237Z,8.10
2022-12-11T10:43:52.962Z,9.13
2022-12-11T10:46:25.330Z,9.73
2022-12-11T10:48:54.787Z,9.40
2022-12-11T10:51:25.400Z,12.30
2022-12-11T10:53:55.102Z,9.03
2022-12-11T10:56:30.132Z,9.33
2022-12-11T10:59:01.101Z,10.53
2022-12-11T11:01:32.032Z,12.60
2022-12-11T11:04:03.365Z,9.43
2022-12-11T11:06:31.628Z,11.00
2022-12-11T11:09:03.756Z,10.60
2022-12-11T11:11:34.333Z,9.43
2022-12-11T11:14:24.100Z,10.20
2022-12-11T11:16:53.544Z,9.90
2022-12-11T11:19:25.586Z,8.93
2022-12-11T11:21:56.670Z,10.40
2022-12-11T11:24:30.848Z,8.53
2022-12-11T11:27:14.533Z,8.00
2022-12-11T11:29:47.776Z,9.30
2022-12-11T11:32:23.474Z,8.37
2022-12-11T11:34:51.211Z,10.17
2022-12-11T11:37:31.254Z,8.50
2022-12-11T11:40:05.051Z,9.37
2022-12-11T11:42:42.359Z,9.67
2022-12-11T11:45:18.387Z,8.63
2022-12-11T11:47:57.887Z,9.87
2022-12-11T11:50:30.977Z,10.70
2022-12-11T11:53:04.817Z,11.90
2022-12-11T11:55:53.489Z,10.23
2022-12-11T11:58:27.946Z,9.57
2022-12-11T12:00:56.957Z,9.90
2022-12-11T12:03:26.598Z,8.80
2022-12-11T12:05:59.203Z,10.50
2022-12-11T12:08:42.961Z,9.43
2022-12-11T12:11:20.055Z,9.27
2022-12-11T12:13:57.723Z,9.20
2022-12-11T12:16:53.364Z,8.57
2022-12-11T12:19:34.972Z,7.53
2022-12-11T12:22:17.097Z,7.63
2022-12-11T12:24:56.398Z,9.50
2022-12-11T12:30:23.856Z,8.73
2022-12-11T12:33:13.853Z,10.47
2022-12-11T12:35:50.939Z,8.37
2022-12-11T12:38:24.752Z,8.23
2022-12-11T12:41:04.202Z,10.60
2022-12-11T12:43:48.389Z,8.70
2022-12-11T12:46:26.624Z,11.27
2022-12-11T12:48:58.581Z,9.27
2022-12-11T12:51:28.056Z,14.80
2022-12-11T12:53:59.093Z,9.47
2022-12-11T12:56:30.147Z,10.60
2022-12-11T12:58:57.757Z,10.20
2022-12-11T13:01:28.415Z,10.03
2022-12-11T13:03:59.628Z,9.93
2022-12-11T13:06:39.454Z,10.53
2022-12-11T13:09:17.935Z,8.07
2022-12-11T13:11:46.790Z,9.13
2022-12-11T13:14:32.327Z,10.30
2022-12-11T13:17:09.192Z,9.60
2022-12-11T13:19:42.554Z,9.47
2022-12-11T13:22:24.161Z,24.90
2022-12-11T13:25:01.615Z,10.00
2022-12-11T13:27:38.766Z,7.50
2022-12-11T13:30:21.787Z,9.63
2022-12-11T13:33:01.007Z,9.20
2022-12-11T13:35:30.971Z,9.60
2022-12-11T13:38:05.375Z,9.00
2022-12-11T13:40:40.154Z,9.80
2022-12-11T13:43:17.278Z,8.60
2022-12-11T13:45:50.348Z,10.63
2022-12-11T13:48:24.721Z,7.30
2022-12-11T13:50:55.045Z,6.33
2022-12-11T13:53:22.843Z,6.53
2022-12-11T13:55:57.831Z,8.10
2022-12-11T13:58:26.177Z,6.97
2022-12-11T14:01:08.578Z,7.30
2022-12-11T14:03:36.827Z,7.37
2022-12-11T14:06:16.434Z,7.93
2022-12-11T14:08:48.555Z,8.10
2022-12-11T14:11:22.480Z,6.63
2022-12-11T14:13:50.839Z,7.40
2022-12-11T14:16:22.980Z,6.77
2022-12-11T14:18:52.601Z,8.27
2022-12-11T14:21:24.612Z,8.83
2022-12-11T14:23:54.423Z,7.90
2022-12-11T14:26:23.874Z,6.73
2022-12-11T14:28:51.994Z,9.47
2022-12-11T14:31:27.863Z,7.90
2022-12-11T14:33:59.949Z,10.37
2022-12-11T14:36:55.227Z,9.93
2022-12-11T14:39:28.033Z,6.87
2022-12-11T14:42:04.187Z,5.87
2022-12-11T14:44:43.155Z,7.70
2022-12-11T14:47:16.347Z,7.73
2022-12-11T14:49:48.409Z,7.40
2022-12-11T14:52:21.183Z,7.50
2022-12-11T14:54:58.278Z,7.40
2022-12-11T14:57:29.999Z,7.00
2022-12-11T14:59:58.783Z,6.90
2022-12-11T15:02:29.920Z,7.00
2022-12-11T15:05:17.974Z,8.10
2022-12-11T15:07:56.719Z,4.97
2022-12-11T15:10:31.139Z,5.40
2022-12-11T15:12:59.548Z,8.03
2022-12-11T15:15:30.961Z,7.00
2022-12-11T15:17:58.705Z,6.40
2022-12-11T15:20:29.231Z,7.37
2022-12-11T15:23:02.012Z,8.07
2022-12-11T15:25:32.573Z,8.77
2022-12-11T15:28:01.995Z,9.43
2022-12-11T15:30:35.802Z,6.93
2022-12-11T15:33:19.540Z,8.33
2022-12-11T15:36:02.454Z,8.80
2022-12-11T15:38:35.335Z,7.47
2022-12-11T15:41:03.707Z,7.93
2022-12-11T15:43:35.392Z,6.50
2022-12-11T15:46:03.896Z,6.57
2022-12-11T15:48:31.532Z,6.47
2022-12-11T15:50:59.305Z,8.57
2022-12-11T15:53:26.908Z,6.20
2022-12-11T15:55:58.548Z,6.67
2022-12-11T15:58:27.229Z,8.20
2022-12-11T16:00:55.424Z,6.20
2022-12-11T16:03:24.510Z,6.13
2022-12-11T16:05:53.714Z,8.17
2022-12-11T16:08:23.825Z,7.00
2022-12-11T16:10:54.488Z,6.73
2022-12-11T16:13:23.799Z,6.17
2022-12-11T16:15:54.338Z,7.80
2022-12-11T16:18:29.820Z,11.57
2022-12-11T16:20:57.486Z,18.40
2022-12-11T16:23:25.204Z,13.20
2022-12-11T16:25:52.770Z,15.70
2022-12-11T16:28:21.689Z,13.27
2022-12-11T16:30:50.668Z,10.00
2022-12-11T16:33:18.466Z,12.70
2022-12-11T16:35:46.089Z,10.03
2022-12-11T16:38:13.794Z,11.80
2022-12-11T16:40:41.703Z,10.80
2022-12-11T16:43:10.903Z,9.80
2022-12-11T16:45:38.528Z,10.57
2022-12-11T16:48:08.159Z,9.33
2022-12-11T16:50:36.507Z,9.50
2022-12-11T16:53:04.415Z,8.20
2022-12-11T16:55:32.307Z,9.40
2022-12-11T16:58:00.008Z,8.67
2022-12-11T17:00:28.162Z,8.20
2022-12-11T17:02:56.124Z,10.27
2022-12-11T17:05:25.929Z,7.10
2022-12-11T17:07:53.524Z,8.87
2022-12-11T17:10:21.105Z,9.10
2022-12-11T17:12:48.675Z,8.40
2022-12-11T17:15:16.308Z,8.90
2022-12-11T17:17:44.075Z,7.53
2022-12-11T17:20:12.268Z,8.87
2022-12-11T17:22:41.364Z,8.60
2022-12-11T17:25:09.805Z,9.90
2022-12-11T17:27:37.691Z,9.97
2022-12-11T17:30:06.800Z,9.63
2022-12-11T17:32:34.958Z,10.00
2022-12-11T17:35:02.590Z,11.87
2022-12-11T17:37:31.548Z,10.30
2022-12-11T17:40:00.713Z,10.70
2022-12-11T17:42:28.569Z,11.40
2022-12-11T17:44:57.315Z,12.70
2022-12-11T17:47:25.151Z,11.50
2022-12-11T17:50:57.458Z,13.73
2022-12-11T17:53:26.319Z,10.70
2022-12-11T17:55:56.740Z,11.77
2022-12-11T17:58:24.551Z,11.73
2022-12-11T18:00:54.365Z,12.57
2022-12-11T18:03:22.792Z,12.80
2022-12-11T18:05:54.121Z,13.90
2022-12-11T18:08:25.046Z,11.40
2022-12-11T18:10:57.918Z,12.67
2022-12-11T18:13:26.491Z,14.03
2022-12-11T18:16:01.676Z,11.80
2022-12-11T18:18:29.566Z,16.40
2022-12-11T18:21:00.245Z,15.77
2022-12-11T18:23:30.853Z,12.03
2022-12-11T18:26:00.290Z,14.83
2022-12-11T18:28:31.574Z,14.37
2022-12-11T18:31:00.843Z,16.50
2022-12-11T18:33:32.369Z,14.80
2022-12-11T18:36:00.209Z,16.00
2022-12-11T18:38:28.532Z,14.30
2022-12-11T18:40:56.462Z,14.57
2022-12-11T18:43:26.733Z,16.13
2022-12-11T18:45:54.382Z,13.70
2022-12-11T18:48:28.441Z,18.03
2022-12-11T18:50:56.329Z,15.47
2022-12-11T18:53:24.191Z,13.67
2022-12-11T18:55:57.113Z,12.73
2022-12-11T18:58:29.466Z,12.77
2022-12-11T19:00:57.299Z,13.33
2022-12-11T19:03:25.049Z,13.40
2022-12-11T19:05:52.760Z,12.13
2022-12-11T19:08:21.012Z,14.30
2022-12-11T19:10:48.970Z,14.07
2022-12-11T19:16:22.697Z,12.90
2022-12-11T19:18:51.819Z,14.90
2022-12-11T19:21:20.502Z,11.80
2022-12-11T19:23:49.203Z,11.73
2022-12-11T19:26:19.098Z,12.30
2022-12-11T19:28:48.103Z,11.03
2022-12-11T19:31:19.955Z,12.60
2022-12-11T19:33:48.710Z,9.33
2022-12-11T19:36:18.704Z,10.50
2022-12-11T19:38:46.946Z,10.90
2022-12-11T19:41:17.804Z,12.50
2022-12-11T19:43:45.620Z,10.30
2022-12-11T19:46:14.503Z,12.27
2022-12-11T19:48:44.216Z,12.33
2022-12-11T19:51:14.618Z,9.20
2022-12-11T19:53:43.570Z,9.93
2022-12-11T19:56:12.353Z,11.03
2022-12-11T19:58:43.060Z,10.03
2022-12-11T20:01:11.675Z,11.00
2022-12-11T20:03:41.178Z,12.90
2022-12-11T20:06:10.798Z,12.90
2022-12-11T20:08:46.419Z,12.53
2022-12-11T20:11:18.268Z,17.00
2022-12-11T20:13:46.995Z,11.10
2022-12-11T20:16:15.924Z,13.60
2022-12-11T20:18:44.276Z,14.87
2022-12-11T20:21:15.979Z,15.27
2022-12-11T20:23:44.285Z,11.70
2022-12-11T20:26:14.853Z,11.00
2022-12-11T20:28:44.809Z,14.17
2022-12-11T20:31:20.043Z,11.90
2022-12-11T20:33:49.798Z,15.87
2022-12-11T20:36:21.369Z,14.60
2022-12-11T20:38:49.735Z,12.07
2022-12-11T20:41:19.830Z,15.10
2022-12-11T20:43:48.924Z,14.70
2022-12-11T20:46:18.558Z,14.83
2022-12-11T20:48:46.226Z,14.17
2022-12-11T20:51:22.394Z,12.33
2022-12-11T20:53:58.701Z,12.60
2022-12-11T20:56:29.862Z,14.83
2022-12-11T20:58:58.387Z,12.63
2022-12-11T21:01:28.351Z,12.23
2022-12-11T21:03:55.990Z,13.90
2022-12-11T21:06:26.262Z,14.20
2022-12-11T21:08:55.747Z,13.33
2022-12-11T21:11:23.789Z,13.50
2022-12-11T21:13:51.955Z,16.07
2022-12-11T21:16:20.369Z,15.30
2022-12-11T21:18:48.547Z,16.40
2022-12-11T21:21:17.405Z,13.93
2022-12-11T21:23:45.643Z,14.30
2022-12-11T21:26:15.421Z,14.97
2022-12-11T21:28:42.993Z,17.40
2022-12-11T21:31:14.262Z,15.50
2022-12-11T21:33:42.448Z,15.07
2022-12-11T21:36:12.659Z,15.00
2022-12-11T21:38:41.160Z,16.00
2022-12-11T21:41:10.407Z,15.90
2022-12-11T21:44:00.183Z,16.17
2022-12-11T21:46:29.147Z,20.20
2022-12-11T21:48:57.030Z,13.90
2022-12-11T21:51:29.765Z,16.97
2022-12-11T21:54:03.161Z,15.90
2022-12-11T21:56:31.609Z,17.70
2022-12-11T21:59:01.422Z,18.37
2022-12-11T22:01:32.243Z,21.10
2022-12-11T22:04:00.873Z,19.17
2022-12-11T22:06:29.403Z,14.37
2022-12-11T22:08:57.135Z,17.73
2022-12-11T22:11:32.538Z,19.37
2022-12-11T22:14:01.936Z,18.57
2022-12-11T22:16:30.274Z,17.57
2022-12-11T22:18:59.296Z,16.63
2022-12-11T22:21:26.959Z,19.20
2022-12-11T22:23:55.412Z,17.70
2022-12-11T22:26:25.272Z,17.30
2022-12-11T22:28:53.452Z,17.10
2022-12-11T22:31:25.119Z,15.63
2022-12-11T22:33:54.928Z,18.97
2022-12-11T22:36:23.256Z,16.83
2022-12-11T22:38:51.120Z,16.47
2022-12-11T22:41:24.573Z,18.07
2022-12-11T22:43:52.338Z,15.90
2022-12-11T22:46:23.822Z,17.13
2022-12-11T22:48:51.960Z,18.87
2022-12-11T22:51:20.178Z,19.70
2022-12-11T22:53:48.040Z,17.53
2022-12-11T22:56:15.779Z,16.60
2022-12-11T22:58:43.578Z,18.80
2022-12-11T23:01:13.910Z,14.67
2022-12-11T23:03:43.355Z,16.93
2022-12-11T23:06:14.100Z,12.33
2022-12-11T23:08:43.197Z,13.13
2022-12-11T23:11:12.539Z,14.97
2022-12-11T23:13:41.514Z,13.43
2022-12-11T23:16:09.617Z,12.70
2022-12-11T23:18:37.304Z,17.57
2022-12-11T23:21:07.048Z,15.40
2022-12-11T23:23:34.624Z,14.17
2022-12-11T23:26:03.157Z,16.60
2022-12-11T23:28:30.918Z,17.13
2022-12-11T23:30:58.618Z,15.60
2022-12-11T23:33:26.801Z,14.87
2022-12-11T23:35:55.223Z,14.90
2022-12-11T23:38:25.601Z,16.20
2022-12-11T23:40:54.727Z,17.63
2022-12-11T23:43:23.113Z,16.60
2022-12-11T23:45:50.723Z,16.23
2022-12-11T23:48:18.781Z,15.97
2022-12-11T23:50:46.744Z,15.47
2022-12-11T23:53:14.724Z,16.43
2022-12-11T23:55:45.616Z,16.33
2022-12-11T23:58:13.578Z,21.77
